Time;durP1;ratioP1;P1;durP2;ratioP2;P2;SDS_P1;SDS_P2;PMS_P1;PMS_P2;Temp;Humidity;BMP_temperature;BMP_pressure;BME280_temperature;BME280_humidity;BME280_pressure;Samples;Min_cycle;Max_cycle;Signal;HPM_P1;HPM_P2
2022/11/15 00:01:17;;;;;;;;;;;;;;;6.05;100.00;96309.22;5064540;28;19998;-73
2022/11/15 00:03:44;;;;;;;;;;;;;;;6.03;100.00;96303.41;5065536;28;20428;-73
2022/11/15 00:06:10;;;;;;;;;;;;;;;6.01;100.00;96295.78;5057935;28;20317;-72
2022/11/15 00:08:36;;;;;;;;;;;;;;;6.01;100.00;96310.59;5062987;28;20079;-72
2022/11/15 00:11:02;;;;;;;;;;;;;;;5.98;100.00;96303.97;5067304;28;19977;-73
2022/11/15 00:13:28;;;;;;;;;;;;;;;5.98;100.00;96297.94;5068652;28;19955;-73
2022/11/15 00:15:56;;;;;;;;;;;;;;;5.98;100.00;96296.16;5039840;28;19949;-73
2022/11/15 00:18:22;;;;;;;;;;;;;;;6.00;100.00;96295.97;5064320;28;19953;-73
2022/11/15 00:20:48;;;;;;;;;;;;;;;6.00;100.00;96296.75;5069510;28;20501;-73
2022/11/15 00:23:14;;;;;;;;;;;;;;;6.01;100.00;96294.97;5061875;28;20358;-72
2022/11/15 00:25:40;;;;;;;;;;;;;;;6.01;100.00;96293.19;5058550;28;20292;-72
2022/11/15 00:28:06;;;;;;;;;;;;;;;5.97;100.00;96294.56;5051739;28;19964;-73
2022/11/15 00:30:32;;;;;;;;;;;;;;;5.95;100.00;96296.53;5063535;28;19958;-73
2022/11/15 00:33:04;;;;;;;;;;;;;;;5.93;100.00;96285.50;5061227;28;20328;-73
2022/11/15 00:35:32;;;;;;;;;;;;;;;5.89;100.00;96287.66;5064902;28;19954;-72
2022/11/15 00:37:58;;;;;;;;;;;;;;;5.88;100.00;96287.88;5066307;28;19955;-72
2022/11/15 00:40:24;;;;;;;;;;;;;;;5.85;100.00;96286.44;5067377;28;20054;-73
2022/11/15 00:42:50;;;;;;;;;;;;;;;5.83;100.00;96285.81;5057496;28;19961;-72
2022/11/15 00:45:16;;;;;;;;;;;;;;;5.83;100.00;96282.44;5066321;28;20487;-72
2022/11/15 00:47:44;;;;;;;;;;;;;;;5.79;100.00;96287.19;5067453;28;19952;-72
2022/11/15 00:50:10;;;;;;;;;;;;;;;5.78;100.00;96290.81;5057995;28;20415;-72
2022/11/15 00:52:36;;;;;;;;;;;;;;;5.77;100.00;96283.19;5058491;28;20009;-72
2022/11/15 00:55:01;;;;;;;;;;;;;;;5.75;100.00;96277.38;5067703;28;19951;-72
2022/11/15 00:57:27;;;;;;;;;;;;;;;5.74;100.00;96281.78;5061059;28;19958;-72
2022/11/15 00:59:53;;;;;;;;;;;;;;;5.73;100.00;96277.56;5060485;28;20430;-72
2022/11/15 01:02:19;;;;;;;;;;;;;;;5.72;100.00;96269.97;5051365;28;20011;-73
2022/11/15 01:04:45;;;;;;;;;;;;;;;5.69;100.00;96274.56;5035770;28;19953;-72
2022/11/15 01:07:11;;;;;;;;;;;;;;;5.70;100.00;96276.16;5061182;28;20480;-72
2022/11/15 01:09:37;;;;;;;;;;;;;;;5.70;100.00;96280.56;5058255;28;19984;-72
2022/11/15 01:12:03;;;;;;;;;;;;;;;5.68;100.00;96269.53;5043073;28;19959;-72
2022/11/15 01:14:29;;;;;;;;;;;;;;;5.66;100.00;96263.72;5062869;28;19958;-72
2022/11/15 01:16:54;;;;;;;;;;;;;;;5.65;100.00;96262.91;5065332;28;19957;-72
2022/11/15 01:19:20;;;;;;;;;;;;;;;5.64;100.00;96261.28;5056635;28;19951;-73
2022/11/15 01:21:48;;;;;;;;;;;;;;;5.64;100.00;96260.50;5064003;28;19952;-72
2022/11/15 01:24:14;;;;;;;;;;;;;;;5.64;100.00;96250.88;5068387;28;20400;-72
2022/11/15 01:26:40;;;;;;;;;;;;;;;5.63;100.00;96254.50;5062761;28;19960;-72
2022/11/15 01:29:06;;;;;;;;;;;;;;;5.61;100.00;96251.28;5060086;28;20047;-72
2022/11/15 01:31:32;;;;;;;;;;;;;;;5.61;100.00;96246.09;5067174;28;20401;-72
2022/11/15 01:33:58;;;;;;;;;;;;;;;5.64;100.00;96247.50;5068680;28;19984;-72
2022/11/15 01:36:24;;;;;;;;;;;;;;;5.63;100.00;96238.09;5064871;28;19978;-72
2022/11/15 01:38:54;;;;;;;;;;;;;;;5.64;100.00;96247.50;5065578;28;19950;-72
2022/11/15 01:41:21;;;;;;;;;;;;;;;5.63;100.00;96235.50;5064220;28;19966;-72
2022/11/15 01:43:55;;;;;;;;;;;;;;;5.63;100.00;96238.09;5065818;28;19955;-72
2022/11/15 01:46:21;;;;;;;;;;;;;;;5.64;100.00;96237.88;5067761;28;20317;-72
2022/11/15 01:48:48;;;;;;;;;;;;;;;5.66;100.00;96238.50;5061634;28;19946;-72
2022/11/15 01:51:17;;;;;;;;;;;;;;;5.65;100.00;96239.50;5067612;28;19957;-72
2022/11/15 01:53:45;;;;;;;;;;;;;;;5.66;100.00;96240.31;5068296;28;19958;-72
2022/11/15 01:56:13;;;;;;;;;;;;;;;5.66;100.00;96237.69;5063761;28;19949;-72
2022/11/15 01:58:40;;;;;;;;;;;;;;;5.65;100.00;96228.31;5066367;28;19948;-73
2022/11/15 02:01:06;;;;;;;;;;;;;;;5.65;100.00;96234.31;5065774;28;19962;-73
2022/11/15 02:03:39;;;;;;;;;;;;;;;5.66;100.00;96228.09;5067207;28;20445;-73
2022/11/15 02:06:05;;;;;;;;;;;;;;;5.67;100.00;96231.53;5066958;28;20412;-73
2022/11/15 02:08:31;;;;;;;;;;;;;;;5.64;100.00;96219.69;5066936;28;19985;-73
2022/11/15 02:10:57;;;;;;;;;;;;;;;5.63;100.00;96215.47;5064285;28;20009;-73
2022/11/15 02:13:23;;;;;;;;;;;;;;;5.62;100.00;96208.66;5063937;28;20006;-72
2022/11/15 02:16:07;;;;;;;;;;;;;;;5.62;100.00;96207.88;5062832;28;19962;-73
2022/11/15 02:18:35;;;;;;;;;;;;;;;5.63;100.00;96206.88;5064751;28;19950;-73
2022/11/15 02:21:10;;;;;;;;;;;;;;;5.62;100.00;96202.66;5071191;28;19972;-73
2022/11/15 02:23:46;;;;;;;;;;;;;;;5.63;100.00;96205.06;5048436;28;19953;-72
2022/11/15 02:26:18;;;;;;;;;;;;;;;5.62;100.00;96200.06;5063442;28;19951;-73
2022/11/15 02:28:48;;;;;;;;;;;;;;;5.62;100.00;96194.84;5065254;28;20425;-73
2022/11/15 02:31:20;;;;;;;;;;;;;;;5.62;100.00;96197.47;5066747;28;19953;-73
2022/11/15 02:33:53;;;;;;;;;;;;;;;5.61;100.00;96194.06;5067215;28;19948;-73
2022/11/15 02:36:26;;;;;;;;;;;;;;;5.61;100.00;96191.47;5060278;28;19956;-73
2022/11/15 02:38:58;;;;;;;;;;;;;;;5.60;100.00;96184.63;5066198;28;19959;-75
2022/11/15 02:41:30;;;;;;;;;;;;;;;5.57;100.00;96179.84;5045456;28;19966;-73
2022/11/15 02:44:13;;;;;;;;;;;;;;;5.58;100.00;96185.81;5062985;28;19955;-73
2022/11/15 02:49:25;;;;;;;;;;;;;;;5.59;100.00;96190.06;5071958;28;20317;-72
2022/11/15 02:51:52;;;;;;;;;;;;;;;5.59;100.00;96182.25;5066077;28;19950;-73
2022/11/15 02:54:21;;;;;;;;;;;;;;;5.61;100.00;96172.44;5062021;28;19950;-73
2022/11/15 02:56:47;;;;;;;;;;;;;;;5.62;100.00;96161.84;5063378;28;19950;-73
2022/11/15 02:59:22;;;;;;;;;;;;;;;5.61;100.00;96162.84;5069543;28;19960;-73
2022/11/15 03:02:03;;;;;;;;;;;;;;;5.62;100.00;96161.03;5067989;28;19963;-73
2022/11/15 03:04:29;;;;;;;;;;;;;;;5.62;100.00;96153.22;5064664;28;19956;-73
2022/11/15 03:07:01;;;;;;;;;;;;;;;5.62;100.00;96146.22;5062383;28;19963;-73
2022/11/15 03:09:27;;;;;;;;;;;;;;;5.61;100.00;96157.63;5068760;28;19977;-74
2022/11/15 03:11:58;;;;;;;;;;;;;;;5.63;100.00;96147.06;5062389;28;19949;-73
2022/11/15 03:14:29;;;;;;;;;;;;;;;5.65;100.00;96147.66;5060986;28;19951;-74
2022/11/15 03:17:07;;;;;;;;;;;;;;;5.67;100.00;96156.06;5064256;28;19980;-74
2022/11/15 03:19:38;;;;;;;;;;;;;;;5.69;100.00;96147.06;5054422;28;19953;-74
2022/11/15 03:22:06;;;;;;;;;;;;;;;5.71;100.00;96154.66;5062040;28;19983;-74
2022/11/15 03:24:34;;;;;;;;;;;;;;;5.73;100.00;96144.88;5068423;28;19953;-74
2022/11/15 03:27:01;;;;;;;;;;;;;;;5.75;100.00;96145.47;5067478;28;19957;-75
2022/11/15 03:29:30;;;;;;;;;;;;;;;5.77;100.00;96145.28;5063706;28;19957;-74
2022/11/15 03:31:59;;;;;;;;;;;;;;;5.75;100.00;96142.88;5060094;28;20319;-74
2022/11/15 03:34:41;;;;;;;;;;;;;;;5.73;100.00;96144.88;5064551;28;19954;-74
2022/11/15 03:37:08;;;;;;;;;;;;;;;5.71;100.00;96144.25;5068726;28;19965;-74
2022/11/15 03:39:34;;;;;;;;;;;;;;;5.69;100.00;96146.25;5063370;28;19989;-74
2022/11/15 03:42:08;;;;;;;;;;;;;;;5.67;100.00;96140.47;5063325;28;20014;-74
2022/11/15 03:44:51;;;;;;;;;;;;;;;5.65;100.00;96132.84;5062317;28;19953;-74
2022/11/15 03:47:38;;;;;;;;;;;;;;;5.64;100.00;96133.03;5069082;28;19946;-73
2022/11/15 03:50:10;;;;;;;;;;;;;;;5.61;100.00;96130.84;5066016;28;19950;-72
2022/11/15 03:52:37;;;;;;;;;;;;;;;5.64;100.00;96122.63;5048648;28;19995;-73
2022/11/15 03:55:03;;;;;;;;;;;;;;;5.68;100.00;96118.66;5060074;28;19954;-73
2022/11/15 03:57:29;;;;;;;;;;;;;;;5.68;100.00;96111.63;5064817;28;19963;-72
2022/11/15 03:59:55;;;;;;;;;;;;;;;5.67;100.00;96124.84;5062854;28;19955;-73
2022/11/15 04:02:21;;;;;;;;;;;;;;;5.67;100.00;96119.66;5067491;28;19954;-72
2022/11/15 04:04:47;;;;;;;;;;;;;;;5.65;100.00;96114.63;5064043;28;19951;-73
2022/11/15 04:07:13;;;;;;;;;;;;;;;5.65;100.00;96126.84;5057086;28;19955;-73
2022/11/15 04:10:01;;;;;;;;;;;;;;;5.64;100.00;96115.63;5062714;28;19980;-74
2022/11/15 04:12:32;;;;;;;;;;;;;;;5.65;100.00;96127.66;5064103;28;20142;-73
2022/11/15 04:15:17;;;;;;;;;;;;;;;5.65;100.00;96119.84;5065185;28;20329;-73
2022/11/15 04:17:47;;;;;;;;;;;;;;;5.65;100.00;96117.25;5049098;28;19952;-73
2022/11/15 04:25:44;;;;;;;;;;;;;;;5.69;100.00;96121.06;5051992;28;19965;-73
2022/11/15 04:28:11;;;;;;;;;;;;;;;5.70;100.00;96112.25;5060928;28;20415;-73
2022/11/15 04:30:37;;;;;;;;;;;;;;;5.73;100.00;96110.25;5064508;28;19955;-73
2022/11/15 04:33:03;;;;;;;;;;;;;;;5.75;100.00;96122.06;5067147;28;19947;-73
2022/11/15 04:35:29;;;;;;;;;;;;;;;5.75;100.00;96114.25;5066816;28;19956;-72
2022/11/15 04:37:56;;;;;;;;;;;;;;;5.77;100.00;96121.88;5056243;28;19952;-72
2022/11/15 04:40:22;;;;;;;;;;;;;;;5.77;100.00;96108.84;5063007;28;19988;-72
2022/11/15 04:42:48;;;;;;;;;;;;;;;5.76;100.00;96118.47;5043599;28;20332;-72
2022/11/15 04:45:14;;;;;;;;;;;;;;;5.74;100.00;96111.88;5068362;28;19955;-72
2022/11/15 04:47:42;;;;;;;;;;;;;;;5.72;100.00;96111.25;5065419;28;19958;-72
2022/11/15 04:50:08;;;;;;;;;;;;;;;5.70;100.00;96104.44;5062256;28;20395;-72
2022/11/15 04:52:34;;;;;;;;;;;;;;;5.70;100.00;96098.44;5057532;28;20001;-73
2022/11/15 04:55:00;;;;;;;;;;;;;;;5.69;100.00;96097.66;5064050;28;19957;-73
2022/11/15 04:57:26;;;;;;;;;;;;;;;5.70;100.00;96101.03;5066442;28;19967;-73
2022/11/15 04:59:52;;;;;;;;;;;;;;;5.71;100.00;96097.44;5060328;28;20368;-73
2022/11/15 05:02:17;;;;;;;;;;;;;;;5.72;100.00;96096.44;5063219;28;19974;-74
2022/11/15 05:04:43;;;;;;;;;;;;;;;5.73;100.00;96095.44;5061367;28;20473;-73
2022/11/15 05:07:09;;;;;;;;;;;;;;;5.75;100.00;96082.22;5066972;28;20037;-74
2022/11/15 05:09:35;;;;;;;;;;;;;;;5.76;100.00;96087.25;5069218;28;20010;-74
2022/11/15 05:12:01;;;;;;;;;;;;;;;5.77;100.00;96083.63;5043954;28;20000;-74
2022/11/15 05:14:27;;;;;;;;;;;;;;;5.78;100.00;96077.44;5066243;28;19954;-73
2022/11/15 05:16:53;;;;;;;;;;;;;;;5.78;100.00;96082.66;5071592;28;19955;-74
2022/11/15 05:19:18;;;;;;;;;;;;;;;5.81;100.00;96073.66;5061966;28;19948;-74
2022/11/15 05:21:44;;;;;;;;;;;;;;;5.82;100.00;96075.25;5066231;28;20033;-74
2022/11/15 05:24:11;;;;;;;;;;;;;;;5.82;100.00;96081.25;5062823;28;19968;-74
2022/11/15 05:26:36;;;;;;;;;;;;;;;5.83;100.00;96075.03;5070219;28;19944;-74
2022/11/15 05:29:02;;;;;;;;;;;;;;;5.83;100.00;96077.66;5066751;28;19955;-74
2022/11/15 05:31:28;;;;;;;;;;;;;;;5.83;100.00;96069.84;5065926;28;19956;-73
2022/11/15 05:33:56;;;;;;;;;;;;;;;5.83;100.00;96069.84;5066829;28;19955;-73
2022/11/15 05:36:40;;;;;;;;;;;;;;;5.83;100.00;96061.25;5063397;28;19952;-73
2022/11/15 05:39:06;;;;;;;;;;;;;;;5.81;100.00;96061.44;5065486;28;20306;-73
2022/11/15 05:41:39;;;;;;;;;;;;;;;5.80;100.00;96059.84;5056355;28;19989;-73
2022/11/15 05:44:07;;;;;;;;;;;;;;;5.79;100.00;96060.81;5065679;28;20316;-73
2022/11/15 05:46:33;;;;;;;;;;;;;;;5.77;100.00;96064.63;5063845;28;19959;-73
2022/11/15 05:48:59;;;;;;;;;;;;;;;5.74;100.00;96052.03;5066078;28;20357;-73
2022/11/15 05:51:28;;;;;;;;;;;;;;;5.72;100.00;96060.03;5067180;28;19978;-73
2022/11/15 05:53:55;;;;;;;;;;;;;;;5.70;100.00;96046.41;5063721;28;19952;-73
2022/11/15 05:56:21;;;;;;;;;;;;;;;5.70;100.00;96052.41;5065457;28;19975;-73
2022/11/15 05:58:47;;;;;;;;;;;;;;;5.69;100.00;96063.81;5062944;28;20426;-73
2022/11/15 06:01:13;;;;;;;;;;;;;;;5.69;100.00;96053.41;5068568;28;19972;-74
2022/11/15 06:03:39;;;;;;;;;;;;;;;5.69;100.00;96050.81;5068194;28;19958;-76
2022/11/15 06:06:05;;;;;;;;;;;;;;;5.70;100.00;96059.41;5060215;28;19948;-74
2022/11/15 06:08:31;;;;;;;;;;;;;;;5.71;100.00;96050.59;5065369;28;19980;-74
2022/11/15 06:11:02;;;;;;;;;;;;;;;5.69;100.00;96050.81;5068430;28;20039;-74
2022/11/15 06:13:28;;;;;;;;;;;;;;;5.68;100.00;96051.00;5069892;28;19966;-74
2022/11/15 06:15:55;;;;;;;;;;;;;;;5.66;100.00;96053.00;5069129;28;19957;-74
2022/11/15 06:18:21;;;;;;;;;;;;;;;5.64;100.00;96057.59;5064229;28;19973;-72
2022/11/15 06:20:47;;;;;;;;;;;;;;;5.63;100.00;96062.00;5065881;28;19973;-73
2022/11/15 06:23:13;;;;;;;;;;;;;;;5.63;100.00;96066.41;5066184;28;20484;-73
2022/11/15 06:25:39;;;;;;;;;;;;;;;5.62;100.00;96065.59;5070540;28;19948;-73
2022/11/15 06:28:04;;;;;;;;;;;;;;;5.62;100.00;96065.59;5065599;28;20506;-73
2022/11/15 06:30:30;;;;;;;;;;;;;;;5.63;100.00;96067.19;5064703;28;19958;-74
2022/11/15 06:33:00;;;;;;;;;;;;;;;5.64;100.00;96073.19;5066682;28;20004;-73
2022/11/15 06:35:26;;;;;;;;;;;;;;;5.64;100.00;96070.59;5064618;28;20343;-73
2022/11/15 06:37:52;;;;;;;;;;;;;;;5.64;100.00;96071.41;5067056;28;19955;-73
2022/11/15 06:40:18;;;;;;;;;;;;;;;5.65;100.00;96080.81;5064825;28;20349;-73
2022/11/15 06:42:44;;;;;;;;;;;;;;;5.66;100.00;96079.81;5061462;28;19968;-73
2022/11/15 06:45:10;;;;;;;;;;;;;;;5.67;100.00;96088.44;5061071;28;19962;-73
2022/11/15 06:47:43;;;;;;;;;;;;;;;5.69;100.00;96071.63;5069826;28;19963;-73
2022/11/15 06:50:09;;;;;;;;;;;;;;;5.70;100.00;96075.81;5065592;28;20426;-73
2022/11/15 06:52:35;;;;;;;;;;;;;;;5.71;100.00;96068.81;5060167;28;19956;-74
2022/11/15 06:55:01;;;;;;;;;;;;;;;5.72;100.00;96072.22;5066370;28;19952;-73
2022/11/15 06:57:27;;;;;;;;;;;;;;;5.71;100.00;96081.81;5065877;28;19952;-73
2022/11/15 06:59:53;;;;;;;;;;;;;;;5.72;100.00;96083.44;5065136;28;19997;-73
2022/11/15 07:02:18;;;;;;;;;;;;;;;5.72;100.00;96087.84;5063741;28;19968;-73
2022/11/15 07:04:44;;;;;;;;;;;;;;;5.72;100.00;96075.63;5064838;28;19985;-73
2022/11/15 07:07:10;;;;;;;;;;;;;;;5.73;100.00;96077.22;5064609;28;20318;-73
2022/11/15 07:09:36;;;;;;;;;;;;;;;5.75;100.00;96083.03;5065443;28;20417;-73
2022/11/15 07:12:02;;;;;;;;;;;;;;;5.77;100.00;96083.63;5063920;28;19955;-73
2022/11/15 07:14:28;;;;;;;;;;;;;;;5.80;100.00;96080.66;5064224;28;19960;-73
2022/11/15 07:16:54;;;;;;;;;;;;;;;5.86;100.00;96076.47;5065553;28;19999;-73
2022/11/15 07:19:19;;;;;;;;;;;;;;;5.92;100.00;96080.06;5065042;28;19971;-73
2022/11/15 07:21:46;;;;;;;;;;;;;;;5.98;100.00;96074.09;5064982;28;20435;-73
2022/11/15 07:24:12;;;;;;;;;;;;;;;6.06;100.00;96076.53;5058643;28;19969;-73
2022/11/15 07:26:38;;;;;;;;;;;;;;;6.16;100.00;96074.34;5062425;28;19957;-73
2022/11/15 07:29:04;;;;;;;;;;;;;;;6.30;100.00;96075.97;5063753;28;20017;-73
2022/11/15 07:31:29;;;;;;;;;;;;;;;6.39;100.00;96065.34;5062947;28;20018;-73
2022/11/15 07:33:56;;;;;;;;;;;;;;;6.45;100.00;96067.94;5067894;28;19963;-73
2022/11/15 07:36:22;;;;;;;;;;;;;;;6.49;100.00;96063.94;5066222;28;19957;-73
2022/11/15 07:38:47;;;;;;;;;;;;;;;6.54;100.00;96058.13;5057637;28;20420;-73
2022/11/15 07:41:13;;;;;;;;;;;;;;;6.58;100.00;96058.53;5047443;28;19971;-74
2022/11/15 07:43:39;;;;;;;;;;;;;;;6.63;100.00;96059.50;5068907;28;20466;-73
2022/11/15 07:46:08;;;;;;;;;;;;;;;6.67;100.00;96062.50;5064699;28;20303;-74
2022/11/15 07:48:39;;;;;;;;;;;;;;;6.71;100.00;96061.91;5063346;28;20306;-73
2022/11/15 07:51:06;;;;;;;;;;;;;;;6.76;100.00;96063.91;5061486;28;19971;-73
2022/11/15 07:53:32;;;;;;;;;;;;;;;6.80;100.00;96061.69;5061910;28;19960;-73
2022/11/15 07:55:58;;;;;;;;;;;;;;;6.84;100.00;96066.28;5066581;28;19955;-74
2022/11/15 07:58:24;;;;;;;;;;;;;;;6.81;100.00;96056.28;5045067;28;20459;-74
2022/11/15 08:00:50;;;;;;;;;;;;;;;6.82;100.00;96052.66;5066887;28;20369;-75
2022/11/15 08:03:16;;;;;;;;;;;;;;;6.88;100.00;96064.88;5059737;28;19953;-74
2022/11/15 08:05:43;;;;;;;;;;;;;;;6.93;100.00;96059.06;5058706;28;19952;-74
2022/11/15 08:08:10;;;;;;;;;;;;;;;6.92;100.00;96057.47;5069185;28;20415;-74
2022/11/15 08:10:36;;;;;;;;;;;;;;;6.96;100.00;96056.06;5066692;28;20415;-74
2022/11/15 08:13:03;;;;;;;;;;;;;;;7.06;100.00;96060.84;5063909;28;19941;-74
2022/11/15 08:15:29;;;;;;;;;;;;;;;7.19;100.00;96058.19;5046720;28;19948;-74
2022/11/15 08:17:56;;;;;;;;;;;;;;;7.29;100.00;96058.56;5072998;28;19950;-75
2022/11/15 08:20:22;;;;;;;;;;;;;;;7.38;100.00;96053.91;5060863;28;20419;-74
2022/11/15 08:22:48;;;;;;;;;;;;;;;7.44;100.00;96057.50;5063433;28;19961;-74
2022/11/15 08:25:14;;;;;;;;;;;;;;;7.50;100.00;96052.25;5063849;28;20315;-74
2022/11/15 08:27:40;;;;;;;;;;;;;;;7.67;100.00;96054.38;5053556;28;19951;-74
2022/11/15 08:30:06;;;;;;;;;;;;;;;7.86;100.00;96053.47;5067556;28;19962;-74
2022/11/15 08:32:32;;;;;;;;;;;;;;;8.06;100.00;96052.53;5063877;28;20335;-74
2022/11/15 08:34:58;;;;;;;;;;;;;;;8.27;100.00;96049.59;5058463;28;20041;-74
2022/11/15 08:37:24;;;;;;;;;;;;;;;8.44;100.00;96047.28;5065907;28;19961;-74
2022/11/15 08:39:50;;;;;;;;;;;;;;;8.57;100.00;96041.13;5062284;28;20422;-74
2022/11/15 08:42:16;;;;;;;;;;;;;;;8.65;100.00;96040.03;5069277;28;20059;-74
2022/11/15 08:44:42;;;;;;;;;;;;;;;8.72;100.00;96027.72;5068191;28;19960;-74
2022/11/15 08:47:10;;;;;;;;;;;;;;;8.74;100.00;96033.53;5065082;28;19954;-74
2022/11/15 08:49:36;;;;;;;;;;;;;;;8.78;100.00;96012.97;5066759;28;20327;-74
2022/11/15 08:52:02;;;;;;;;;;;;;;;8.78;100.00;96024.25;5067444;28;20049;-74
2022/11/15 08:54:28;;;;;;;;;;;;;;;8.80;100.00;96008.31;5071192;28;20035;-74
2022/11/15 08:56:54;;;;;;;;;;;;;;;8.80;100.00;96017.00;5065115;28;19955;-74
2022/11/15 08:59:20;;;;;;;;;;;;;;;8.81;100.00;96009.94;5061956;28;19958;-74
2022/11/15 09:01:46;;;;;;;;;;;;;;;8.80;100.00;96010.94;5069740;28;20060;-74
2022/11/15 09:04:11;;;;;;;;;;;;;;;8.82;100.00;96025.41;5069453;28;20383;-74
2022/11/15 09:06:37;;;;;;;;;;;;;;;8.84;100.00;96012.91;5066499;28;19961;-74
2022/11/15 09:09:03;;;;;;;;;;;;;;;8.88;100.00;96016.69;5067298;28;19975;-74
2022/11/15 09:11:29;;;;;;;;;;;;;;;9.01;100.00;96025.41;5069787;28;19964;-74
2022/11/15 09:13:55;;;;;;;;;;;;;;;9.14;100.00;96009.56;5072074;28;20372;-74
2022/11/15 09:16:21;;;;;;;;;;;;;;;9.26;100.00;96014.84;5066335;28;19951;-74
2022/11/15 09:18:47;;;;;;;;;;;;;;;9.37;98.26;95998.44;5065882;28;19950;-74
2022/11/15 09:21:13;;;;;;;;;;;;;;;9.53;100.00;96010.91;5070614;28;19965;-74
2022/11/15 09:23:39;;;;;;;;;;;;;;;9.70;98.18;95997.16;5067182;28;20399;-74
2022/11/15 09:26:05;;;;;;;;;;;;;;;9.77;97.15;96000.50;5064108;28;19960;-74
2022/11/15 09:28:32;;;;;;;;;;;;;;;9.85;97.25;95994.97;5067891;28;19984;-73
2022/11/15 09:30:59;;;;;;;;;;;;;;;9.91;98.14;96007.16;5066123;28;20326;-74
2022/11/15 09:33:25;;;;;;;;;;;;;;;9.89;95.88;95988.25;5070331;28;19970;-74
2022/11/15 09:35:51;;;;;;;;;;;;;;;9.87;95.90;95984.22;5065868;28;19956;-74
2022/11/15 09:38:18;;;;;;;;;;;;;;;9.85;96.94;95994.13;5067216;28;19964;-74
2022/11/15 09:40:47;;;;;;;;;;;;;;;9.83;98.39;95997.00;5062517;28;19959;-74
2022/11/15 09:43:25;;;;;;;;;;;;;;;9.84;95.44;95984.69;5064072;28;19978;-74
2022/11/15 09:46:10;;;;;;;;;;;;;;;9.87;94.07;95979.00;5066765;28;19956;-74
2022/11/15 09:48:35;;;;;;;;;;;;;;;9.88;95.18;95975.38;5066869;28;19953;-75
2022/11/15 09:51:04;;;;;;;;;;;;;;;9.87;95.70;95981.63;5068497;28;19957;-74
2022/11/15 09:53:38;;;;;;;;;;;;;;;9.87;96.43;95979.81;5068087;28;19945;-74
2022/11/15 09:56:13;;;;;;;;;;;;;;;9.90;97.01;95989.03;5065694;28;19947;-74
2022/11/15 09:58:38;;;;;;;;;;;;;;;9.94;97.13;95979.72;5045704;28;19953;-74
2022/11/15 10:01:09;;;;;;;;;;;;;;;10.00;97.72;95983.25;5071147;28;19971;-74
2022/11/15 10:03:37;;;;;;;;;;;;;;;10.06;98.05;95980.53;5070807;28;19949;-74
2022/11/15 10:06:04;;;;;;;;;;;;;;;10.11;97.81;95979.84;5061712;28;19957;-74
2022/11/15 10:08:30;;;;;;;;;;;;;;;10.16;97.99;95979.97;5063311;28;19974;-74
2022/11/15 10:10:58;;;;;;;;;;;;;;;10.20;95.99;95962.75;5065166;28;19994;-74
2022/11/15 10:13:35;;;;;;;;;;;;;;;10.26;98.07;95980.19;5064990;28;19951;-75
2022/11/15 10:16:09;;;;;;;;;;;;;;;10.28;94.09;95946.69;5067274;28;20028;-74
2022/11/15 10:18:44;;;;;;;;;;;;;;;10.29;96.22;95958.81;5060091;28;20414;-74
2022/11/15 10:21:20;;;;;;;;;;;;;;;10.32;97.69;95963.59;5063118;28;20334;-75
2022/11/15 10:23:47;;;;;;;;;;;;;;;10.38;97.71;95961.09;5049626;28;20329;-75
2022/11/15 10:26:15;;;;;;;;;;;;;;;10.44;97.66;95958.38;5067553;28;19961;-74
2022/11/15 10:28:41;;;;;;;;;;;;;;;10.47;95.09;95947.41;5063830;28;19947;-74
2022/11/15 10:31:22;;;;;;;;;;;;;;;10.49;95.97;95947.19;5061856;28;20405;-74
2022/11/15 10:33:48;;;;;;;;;;;;;;;10.51;95.83;95943.31;5060087;28;19945;-74
2022/11/15 10:36:15;;;;;;;;;;;;;;;10.50;98.03;95946.97;5067450;28;20292;-74
2022/11/15 10:38:50;;;;;;;;;;;;;;;10.51;96.94;95942.50;5065008;28;19966;-74
2022/11/15 10:41:15;;;;;;;;;;;;;;;10.48;96.53;95938.53;5062357;28;19951;-74
2022/11/15 10:43:41;;;;;;;;;;;;;;;10.46;97.25;95937.97;5063424;28;20332;-74
2022/11/15 10:46:19;;;;;;;;;;;;;;;10.46;97.93;95950.28;5067124;28;20322;-74
2022/11/15 10:48:45;;;;;;;;;;;;;;;10.44;97.60;95942.63;5068398;28;19960;-75
2022/11/15 10:51:20;;;;;;;;;;;;;;;10.44;98.98;95947.09;5066148;28;19953;-74
2022/11/15 10:53:46;;;;;;;;;;;;;;;10.43;97.78;95941.03;5062227;28;19947;-74
2022/11/15 10:56:15;;;;;;;;;;;;;;;10.42;97.95;95941.28;5065943;28;20331;-74
2022/11/15 10:58:42;;;;;;;;;;;;;;;10.40;99.71;95944.13;5064227;28;19973;-74
2022/11/15 11:01:10;;;;;;;;;;;;;;;10.39;98.86;95937.28;5064031;28;19959;-74
2022/11/15 11:03:40;;;;;;;;;;;;;;;10.40;99.82;95938.09;5066474;28;20428;-74
2022/11/15 11:06:05;;;;;;;;;;;;;;;10.44;100.00;95932.16;5063863;28;19975;-74
2022/11/15 11:08:32;;;;;;;;;;;;;;;10.49;100.00;95924.38;5062301;28;19979;-76
2022/11/15 11:10:59;;;;;;;;;;;;;;;10.55;99.58;95927.94;5064495;28;19951;-74
2022/11/15 11:13:26;;;;;;;;;;;;;;;10.59;100.00;95925.66;5065604;28;19959;-74
2022/11/15 11:15:56;;;;;;;;;;;;;;;10.63;100.00;95909.22;5066502;28;19980;-75
2022/11/15 11:18:27;;;;;;;;;;;;;;;10.68;99.57;95911.94;5061939;28;19961;-74
2022/11/15 11:20:59;;;;;;;;;;;;;;;10.68;98.20;95908.53;5059201;28;19955;-74
2022/11/15 11:23:34;;;;;;;;;;;;;;;10.69;99.49;95905.69;5064508;28;19962;-74
2022/11/15 11:26:15;;;;;;;;;;;;;;;10.68;98.83;95890.16;5060104;28;20304;-74
2022/11/15 11:28:59;;;;;;;;;;;;;;;10.70;98.40;95894.13;5067182;28;19948;-74
2022/11/15 11:31:28;;;;;;;;;;;;;;;10.76;99.14;95892.44;5065042;28;19963;-74
2022/11/15 11:34:09;;;;;;;;;;;;;;;10.79;98.15;95886.69;5068558;28;19950;-75
2022/11/15 11:36:35;;;;;;;;;;;;;;;10.82;98.41;95883.63;5061085;28;20451;-74
2022/11/15 11:39:24;;;;;;;;;;;;;;;10.88;98.42;95887.16;5060465;28;19953;-74
2022/11/15 11:41:55;;;;;;;;;;;;;;;10.94;97.89;95876.53;5046876;28;20423;-74
2022/11/15 11:44:36;;;;;;;;;;;;;;;10.98;97.44;95874.22;5063453;28;20003;-74
2022/11/15 11:47:02;;;;;;;;;;;;;;;11.03;96.67;95868.28;5061355;28;19975;-74
2022/11/15 11:49:32;;;;;;;;;;;;;;;11.07;97.01;95858.91;5061469;28;19952;-74
2022/11/15 11:52:02;;;;;;;;;;;;;;;11.10;97.14;95856.59;5063499;28;20397;-74
2022/11/15 11:54:33;;;;;;;;;;;;;;;11.13;97.01;95855.34;5065671;28;19952;-74
2022/11/15 11:57:02;;;;;;;;;;;;;;;11.16;97.38;95855.66;5064328;28;19945;-74
2022/11/15 11:59:35;;;;;;;;;;;;;;;11.15;95.31;95837.53;5063864;28;19952;-74
2022/11/15 12:02:25;;;;;;;;;;;;;;;11.15;96.61;95846.19;5064082;28;19963;-74
2022/11/15 12:04:52;;;;;;;;;;;;;;;11.15;96.90;95846.19;5045702;28;19950;-74
2022/11/15 12:07:27;;;;;;;;;;;;;;;11.17;95.94;95843.31;5059123;28;19962;-74
2022/11/15 12:10:14;;;;;;;;;;;;;;;11.17;95.69;95844.13;5063805;28;19976;-74
2022/11/15 12:12:49;;;;;;;;;;;;;;;11.18;96.41;95842.31;5064818;28;19964;-74
2022/11/15 12:15:18;;;;;;;;;;;;;;;11.20;97.73;95848.13;5068424;28;19965;-74
2022/11/15 12:17:45;;;;;;;;;;;;;;;11.23;98.52;95842.38;5062502;28;19950;-74
2022/11/15 12:20:13;;;;;;;;;;;;;;;11.26;97.09;95838.50;5058672;28;20393;-74
2022/11/15 12:22:45;;;;;;;;;;;;;;;11.30;97.88;95834.38;5064667;28;19962;-74
2022/11/15 12:25:23;;;;;;;;;;;;;;;11.35;97.60;95830.00;5052715;28;19976;-74
2022/11/15 12:27:55;;;;;;;;;;;;;;;11.42;96.26;95829.03;5063829;28;19956;-74
2022/11/15 12:30:22;;;;;;;;;;;;;;;11.47;96.11;95822.06;5062144;28;19949;-74
2022/11/15 12:32:58;;;;;;;;;;;;;;;11.52;96.29;95823.94;5060321;28;19950;-74
2022/11/15 12:35:27;;;;;;;;;;;;;;;11.60;97.49;95834.06;5066262;28;19987;-73
2022/11/15 12:37:56;;;;;;;;;;;;;;;11.68;97.61;95830.25;5066656;28;19968;-74
2022/11/15 12:40:26;;;;;;;;;;;;;;;11.74;96.14;95821.41;5062753;28;19958;-74
2022/11/15 12:42:58;;;;;;;;;;;;;;;11.77;94.90;95800.69;5058528;28;20447;-74
2022/11/15 12:45:26;;;;;;;;;;;;;;;11.78;96.05;95817.28;5059522;28;19950;-74
2022/11/15 12:47:52;;;;;;;;;;;;;;;11.78;93.59;95798.88;5066538;28;19954;-74
2022/11/15 12:50:37;;;;;;;;;;;;;;;11.77;95.19;95807.78;5066519;28;19961;-74
2022/11/15 12:53:22;;;;;;;;;;;;;;;11.76;95.13;95809.63;5061139;28;19954;-74
2022/11/15 12:56:17;;;;;;;;;;;;;;;11.76;95.49;95806.22;5060934;28;19945;-74
2022/11/15 12:58:48;;;;;;;;;;;;;;;11.72;94.31;95791.97;5048447;28;19971;-74
2022/11/15 13:01:32;;;;;;;;;;;;;;;11.68;94.88;95790.84;5062819;28;19943;-74
2022/11/15 13:04:17;;;;;;;;;;;;;;;11.64;95.84;95797.63;5060352;28;19967;-74